sensor_id;sensor_type;location;lat;lon;timestamp;P1;durP1;ratioP1;P2;durP2;ratioP2
75488;SDS011;64069;46.396;48.102;2023-05-10T00:01:24;6.05;;;2.75;;
75488;SDS011;64069;46.396;48.102;2023-05-10T00:03:56;8.77;;;2.97;;
75488;SDS011;64069;46.396;48.102;2023-05-10T00:06:22;8.25;;;2.60;;
75488;SDS011;64069;46.396;48.102;2023-05-10T00:08:54;7.65;;;2.72;;
75488;SDS011;64069;46.396;48.102;2023-05-10T00:11:26;7.93;;;2.50;;
75488;SDS011;64069;46.396;48.102;2023-05-10T00:14:12;5.53;;;2.70;;
75488;SDS011;64069;46.396;48.102;2023-05-10T00:16:44;10.10;;;3.20;;
75488;SDS011;64069;46.396;48.102;2023-05-10T00:19:10;7.18;;;2.60;;
75488;SDS011;64069;46.396;48.102;2023-05-10T00:21:42;7.90;;;3.58;;
75488;SDS011;64069;46.396;48.102;2023-05-10T00:24:14;5.82;;;2.78;;
75488;SDS011;64069;46.396;48.102;2023-05-10T00:26:40;6.68;;;2.72;;
75488;SDS011;64069;46.396;48.102;2023-05-10T00:29:13;8.60;;;3.50;;
75488;SDS011;64069;46.396;48.102;2023-05-10T00:31:46;6.38;;;3.00;;
75488;SDS011;64069;46.396;48.102;2023-05-10T00:34:12;8.50;;;3.35;;
75488;SDS011;64069;46.396;48.102;2023-05-10T00:36:44;6.93;;;2.80;;
75488;SDS011;64069;46.396;48.102;2023-05-10T00:39:17;5.25;;;2.60;;
75488;SDS011;64069;46.396;48.102;2023-05-10T00:41:43;10.95;;;3.50;;
75488;SDS011;64069;46.396;48.102;2023-05-10T00:44:16;6.25;;;3.13;;
75488;SDS011;64069;46.396;48.102;2023-05-10T00:46:49;8.18;;;2.97;;
75488;SDS011;64069;46.396;48.102;2023-05-10T00:49:21;10.38;;;3.05;;
75488;SDS011;64069;46.396;48.102;2023-05-10T00:51:48;11.20;;;3.30;;
75488;SDS011;64069;46.396;48.102;2023-05-10T00:54:21;8.80;;;3.20;;
75488;SDS011;64069;46.396;48.102;2023-05-10T00:56:53;6.72;;;2.80;;
75488;SDS011;64069;46.396;48.102;2023-05-10T00:59:20;8.30;;;4.15;;
75488;SDS011;64069;46.396;48.102;2023-05-10T01:01:52;5.63;;;2.75;;
75488;SDS011;64069;46.396;48.102;2023-05-10T01:04:25;7.28;;;3.03;;
75488;SDS011;64069;46.396;48.102;2023-05-10T01:06:52;9.18;;;2.95;;
75488;SDS011;64069;46.396;48.102;2023-05-10T01:09:25;8.25;;;2.97;;
75488;SDS011;64069;46.396;48.102;2023-05-10T01:11:57;9.10;;;3.22;;
75488;SDS011;64069;46.396;48.102;2023-05-10T01:14:38;10.40;;;3.05;;
75488;SDS011;64069;46.396;48.102;2023-05-10T01:17:05;10.68;;;3.15;;
75488;SDS011;64069;46.396;48.102;2023-05-10T01:19:40;8.80;;;2.85;;
75488;SDS011;64069;46.396;48.102;2023-05-10T01:34:16;11.43;;;2.97;;
75488;SDS011;64069;46.396;48.102;2023-05-10T01:37:00;11.68;;;2.90;;
75488;SDS011;64069;46.396;48.102;2023-05-10T01:39:44;11.05;;;2.92;;
75488;SDS011;64069;46.396;48.102;2023-05-10T01:42:23;13.25;;;3.70;;
75488;SDS011;64069;46.396;48.102;2023-05-10T01:45:00;5.72;;;2.58;;
75488;SDS011;64069;46.396;48.102;2023-05-10T01:50:38;7.85;;;2.97;;
75488;SDS011;64069;46.396;48.102;2023-05-10T01:53:17;7.15;;;3.55;;
75488;SDS011;64069;46.396;48.102;2023-05-10T01:55:51;8.77;;;3.53;;
75488;SDS011;64069;46.396;48.102;2023-05-10T01:58:29;8.13;;;3.13;;
75488;SDS011;64069;46.396;48.102;2023-05-10T02:01:04;8.77;;;3.40;;
75488;SDS011;64069;46.396;48.102;2023-05-10T02:03:32;9.98;;;3.38;;
75488;SDS011;64069;46.396;48.102;2023-05-10T02:06:07;6.45;;;3.00;;
75488;SDS011;64069;46.396;48.102;2023-05-10T02:08:42;4.95;;;2.60;;
75488;SDS011;64069;46.396;48.102;2023-05-10T02:11:11;8.20;;;3.38;;
75488;SDS011;64069;46.396;48.102;2023-05-10T02:13:52;6.50;;;2.78;;
75488;SDS011;64069;46.396;48.102;2023-05-10T02:16:27;9.27;;;2.67;;
75488;SDS011;64069;46.396;48.102;2023-05-10T02:18:55;6.72;;;2.85;;
75488;SDS011;64069;46.396;48.102;2023-05-10T02:21:30;5.75;;;2.70;;
75488;SDS011;64069;46.396;48.102;2023-05-10T02:24:05;9.73;;;2.90;;
75488;SDS011;64069;46.396;48.102;2023-05-10T02:26:32;7.72;;;2.55;;
75488;SDS011;64069;46.396;48.102;2023-05-10T02:29:06;6.15;;;2.38;;
75488;SDS011;64069;46.396;48.102;2023-05-10T02:31:40;8.32;;;2.58;;
75488;SDS011;64069;46.396;48.102;2023-05-10T02:34:08;7.97;;;2.88;;
75488;SDS011;64069;46.396;48.102;2023-05-10T02:36:44;9.20;;;3.13;;
75488;SDS011;64069;46.396;48.102;2023-05-10T02:39:16;15.90;;;2.88;;
75488;SDS011;64069;46.396;48.102;2023-05-10T02:41:50;8.13;;;2.72;;
75488;SDS011;64069;46.396;48.102;2023-05-10T02:44:18;7.72;;;2.83;;
75488;SDS011;64069;46.396;48.102;2023-05-10T02:46:51;9.57;;;2.67;;
75488;SDS011;64069;46.396;48.102;2023-05-10T02:49:23;13.20;;;3.97;;
75488;SDS011;64069;46.396;48.102;2023-05-10T02:51:56;10.35;;;2.60;;
75488;SDS011;64069;46.396;48.102;2023-05-10T02:54:33;10.93;;;2.42;;
75488;SDS011;64069;46.396;48.102;2023-05-10T02:57:17;7.70;;;2.88;;
75488;SDS011;64069;46.396;48.102;2023-05-10T02:59:54;8.15;;;2.90;;
75488;SDS011;64069;46.396;48.102;2023-05-10T03:02:27;4.43;;;2.33;;
75488;SDS011;64069;46.396;48.102;2023-05-10T03:05:01;11.73;;;2.58;;
75488;SDS011;64069;46.396;48.102;2023-05-10T03:07:34;5.50;;;2.20;;
75488;SDS011;64069;46.396;48.102;2023-05-10T03:10:01;10.63;;;2.88;;
75488;SDS011;64069;46.396;48.102;2023-05-10T03:16:01;8.00;;;2.22;;
75488;SDS011;64069;46.396;48.102;2023-05-10T03:21:48;14.95;;;2.47;;
75488;SDS011;64069;46.396;48.102;2023-05-10T03:24:22;6.10;;;2.90;;
75488;SDS011;64069;46.396;48.102;2023-05-10T03:26:58;8.70;;;2.78;;
75488;SDS011;64069;46.396;48.102;2023-05-10T03:29:34;9.38;;;2.58;;
75488;SDS011;64069;46.396;48.102;2023-05-10T03:32:03;11.07;;;2.50;;
75488;SDS011;64069;46.396;48.102;2023-05-10T03:34:36;10.13;;;2.90;;
75488;SDS011;64069;46.396;48.102;2023-05-10T03:37:13;9.13;;;3.55;;
75488;SDS011;64069;46.396;48.102;2023-05-10T03:39:40;5.07;;;2.92;;
75488;SDS011;64069;46.396;48.102;2023-05-10T03:42:08;7.82;;;2.47;;
75488;SDS011;64069;46.396;48.102;2023-05-10T03:44:38;5.78;;;2.50;;
75488;SDS011;64069;46.396;48.102;2023-05-10T03:47:05;8.40;;;2.70;;
75488;SDS011;64069;46.396;48.102;2023-05-10T03:49:35;8.02;;;2.70;;
75488;SDS011;64069;46.396;48.102;2023-05-10T03:52:02;7.60;;;2.53;;
75488;SDS011;64069;46.396;48.102;2023-05-10T03:54:30;7.68;;;2.40;;
75488;SDS011;64069;46.396;48.102;2023-05-10T03:56:58;11.52;;;2.67;;
75488;SDS011;64069;46.396;48.102;2023-05-10T03:59:24;5.22;;;2.05;;
75488;SDS011;64069;46.396;48.102;2023-05-10T04:01:51;7.70;;;2.50;;
75488;SDS011;64069;46.396;48.102;2023-05-10T04:04:18;8.40;;;2.70;;
75488;SDS011;64069;46.396;48.102;2023-05-10T04:06:48;9.35;;;2.80;;
75488;SDS011;64069;46.396;48.102;2023-05-10T04:09:14;7.53;;;2.90;;
75488;SDS011;64069;46.396;48.102;2023-05-10T04:11:41;8.38;;;2.08;;
75488;SDS011;64069;46.396;48.102;2023-05-10T04:14:07;6.88;;;2.50;;
75488;SDS011;64069;46.396;48.102;2023-05-10T04:16:34;5.85;;;2.20;;
75488;SDS011;64069;46.396;48.102;2023-05-10T04:19:01;4.88;;;2.10;;
75488;SDS011;64069;46.396;48.102;2023-05-10T04:21:28;6.95;;;2.20;;
75488;SDS011;64069;46.396;48.102;2023-05-10T04:23:55;5.22;;;2.80;;
75488;SDS011;64069;46.396;48.102;2023-05-10T04:26:21;8.60;;;2.40;;
75488;SDS011;64069;46.396;48.102;2023-05-10T04:28:48;6.47;;;2.55;;
75488;SDS011;64069;46.396;48.102;2023-05-10T04:31:15;3.90;;;2.08;;
75488;SDS011;64069;46.396;48.102;2023-05-10T04:33:42;12.32;;;2.63;;
75488;SDS011;64069;46.396;48.102;2023-05-10T04:36:09;8.27;;;2.00;;
75488;SDS011;64069;46.396;48.102;2023-05-10T04:38:35;11.23;;;2.40;;
75488;SDS011;64069;46.396;48.102;2023-05-10T04:41:08;11.30;;;2.58;;
75488;SDS011;64069;46.396;48.102;2023-05-10T04:43:35;4.07;;;1.92;;
75488;SDS011;64069;46.396;48.102;2023-05-10T04:46:01;8.52;;;2.42;;
75488;SDS011;64069;46.396;48.102;2023-05-10T04:48:28;6.35;;;2.33;;
75488;SDS011;64069;46.396;48.102;2023-05-10T04:50:54;8.82;;;2.30;;
75488;SDS011;64069;46.396;48.102;2023-05-10T04:53:20;6.38;;;2.13;;
75488;SDS011;64069;46.396;48.102;2023-05-10T04:55:46;9.07;;;3.00;;
75488;SDS011;64069;46.396;48.102;2023-05-10T04:58:13;7.45;;;1.98;;
75488;SDS011;64069;46.396;48.102;2023-05-10T05:00:39;7.07;;;2.58;;
75488;SDS011;64069;46.396;48.102;2023-05-10T05:03:05;6.25;;;2.30;;
75488;SDS011;64069;46.396;48.102;2023-05-10T05:05:31;5.10;;;2.10;;
75488;SDS011;64069;46.396;48.102;2023-05-10T05:07:57;11.18;;;2.55;;
75488;SDS011;64069;46.396;48.102;2023-05-10T05:10:23;7.28;;;2.60;;
75488;SDS011;64069;46.396;48.102;2023-05-10T05:12:49;8.55;;;2.53;;
75488;SDS011;64069;46.396;48.102;2023-05-10T05:15:15;8.40;;;2.60;;
75488;SDS011;64069;46.396;48.102;2023-05-10T05:17:42;12.23;;;2.20;;
75488;SDS011;64069;46.396;48.102;2023-05-10T05:20:08;10.20;;;2.53;;
75488;SDS011;64069;46.396;48.102;2023-05-10T05:22:35;8.20;;;2.10;;
75488;SDS011;64069;46.396;48.102;2023-05-10T05:25:02;7.90;;;2.20;;
75488;SDS011;64069;46.396;48.102;2023-05-10T05:27:28;5.28;;;2.10;;
75488;SDS011;64069;46.396;48.102;2023-05-10T05:29:56;6.57;;;2.33;;
75488;SDS011;64069;46.396;48.102;2023-05-10T05:32:23;10.13;;;2.35;;
75488;SDS011;64069;46.396;48.102;2023-05-10T05:34:49;6.25;;;2.55;;
75488;SDS011;64069;46.396;48.102;2023-05-10T05:37:17;5.65;;;2.08;;
75488;SDS011;64069;46.396;48.102;2023-05-10T05:39:44;7.13;;;2.58;;
75488;SDS011;64069;46.396;48.102;2023-05-10T05:42:11;7.88;;;2.08;;
75488;SDS011;64069;46.396;48.102;2023-05-10T05:44:37;4.90;;;2.20;;
75488;SDS011;64069;46.396;48.102;2023-05-10T05:47:04;11.73;;;2.55;;
75488;SDS011;64069;46.396;48.102;2023-05-10T05:49:31;5.95;;;2.42;;
75488;SDS011;64069;46.396;48.102;2023-05-10T05:52:03;8.77;;;2.30;;
75488;SDS011;64069;46.396;48.102;2023-05-10T05:54:29;5.55;;;1.85;;
75488;SDS011;64069;46.396;48.102;2023-05-10T05:56:59;8.98;;;2.10;;
75488;SDS011;64069;46.396;48.102;2023-05-10T05:59:26;5.03;;;2.20;;
75488;SDS011;64069;46.396;48.102;2023-05-10T06:01:52;5.43;;;2.22;;
75488;SDS011;64069;46.396;48.102;2023-05-10T06:04:18;11.80;;;2.50;;
75488;SDS011;64069;46.396;48.102;2023-05-10T06:06:44;6.15;;;2.08;;
75488;SDS011;64069;46.396;48.102;2023-05-10T06:09:10;8.88;;;2.20;;
75488;SDS011;64069;46.396;48.102;2023-05-10T06:11:37;7.93;;;2.50;;
75488;SDS011;64069;46.396;48.102;2023-05-10T06:14:03;7.10;;;2.22;;
75488;SDS011;64069;46.396;48.102;2023-05-10T06:16:30;5.75;;;1.65;;
75488;SDS011;64069;46.396;48.102;2023-05-10T06:18:56;9.27;;;1.90;;
75488;SDS011;64069;46.396;48.102;2023-05-10T06:21:22;7.90;;;2.10;;
75488;SDS011;64069;46.396;48.102;2023-05-10T06:23:48;11.73;;;2.08;;
75488;SDS011;64069;46.396;48.102;2023-05-10T06:26:14;17.13;;;2.63;;
75488;SDS011;64069;46.396;48.102;2023-05-10T06:28:40;6.00;;;2.30;;
75488;SDS011;64069;46.396;48.102;2023-05-10T06:31:06;7.00;;;2.20;;
75488;SDS011;64069;46.396;48.102;2023-05-10T06:33:33;5.95;;;2.35;;
75488;SDS011;64069;46.396;48.102;2023-05-10T06:35:59;6.60;;;2.35;;
75488;SDS011;64069;46.396;48.102;2023-05-10T06:38:25;7.00;;;2.28;;
75488;SDS011;64069;46.396;48.102;2023-05-10T06:40:51;6.15;;;1.90;;
75488;SDS011;64069;46.396;48.102;2023-05-10T06:43:17;8.57;;;2.10;;
75488;SDS011;64069;46.396;48.102;2023-05-10T06:45:44;9.85;;;1.85;;
75488;SDS011;64069;46.396;48.102;2023-05-10T06:48:10;10.50;;;2.17;;
75488;SDS011;64069;46.396;48.102;2023-05-10T06:50:36;8.57;;;1.98;;
75488;SDS011;64069;46.396;48.102;2023-05-10T06:53:02;6.88;;;2.17;;
75488;SDS011;64069;46.396;48.102;2023-05-10T06:55:29;11.57;;;2.50;;
75488;SDS011;64069;46.396;48.102;2023-05-10T06:57:54;13.95;;;3.20;;
75488;SDS011;64069;46.396;48.102;2023-05-10T07:00:20;20.50;;;2.90;;
75488;SDS011;64069;46.396;48.102;2023-05-10T07:02:46;9.85;;;1.95;;
75488;SDS011;64069;46.396;48.102;2023-05-10T07:05:13;8.18;;;2.00;;
75488;SDS011;64069;46.396;48.102;2023-05-10T07:07:39;8.85;;;2.13;;
75488;SDS011;64069;46.396;48.102;2023-05-10T07:10:05;9.90;;;2.40;;
75488;SDS011;64069;46.396;48.102;2023-05-10T07:12:32;10.63;;;2.67;;
75488;SDS011;64069;46.396;48.102;2023-05-10T07:14:58;8.35;;;2.35;;
75488;SDS011;64069;46.396;48.102;2023-05-10T07:17:24;6.93;;;2.28;;
75488;SDS011;64069;46.396;48.102;2023-05-10T07:19:51;11.00;;;2.35;;
75488;SDS011;64069;46.396;48.102;2023-05-10T07:22:17;10.20;;;2.20;;
75488;SDS011;64069;46.396;48.102;2023-05-10T07:24:43;9.60;;;2.42;;
75488;SDS011;64069;46.396;48.102;2023-05-10T07:27:09;6.47;;;1.88;;
75488;SDS011;64069;46.396;48.102;2023-05-10T07:29:35;8.85;;;2.10;;
75488;SDS011;64069;46.396;48.102;2023-05-10T07:32:01;12.35;;;2.53;;
75488;SDS011;64069;46.396;48.102;2023-05-10T07:34:27;9.10;;;2.60;;
75488;SDS011;64069;46.396;48.102;2023-05-10T07:36:55;8.35;;;2.20;;
75488;SDS011;64069;46.396;48.102;2023-05-10T07:39:23;4.85;;;2.28;;
75488;SDS011;64069;46.396;48.102;2023-05-10T07:41:49;12.95;;;2.33;;
75488;SDS011;64069;46.396;48.102;2023-05-10T07:44:14;5.35;;;1.65;;
75488;SDS011;64069;46.396;48.102;2023-05-10T07:46:43;7.20;;;2.25;;
75488;SDS011;64069;46.396;48.102;2023-05-10T07:49:09;9.15;;;2.60;;
75488;SDS011;64069;46.396;48.102;2023-05-10T07:51:35;10.05;;;2.35;;
75488;SDS011;64069;46.396;48.102;2023-05-10T07:54:02;4.82;;;1.60;;
75488;SDS011;64069;46.396;48.102;2023-05-10T07:56:29;9.13;;;2.20;;
75488;SDS011;64069;46.396;48.102;2023-05-10T07:58:57;9.15;;;2.42;;
75488;SDS011;64069;46.396;48.102;2023-05-10T08:01:29;8.93;;;2.00;;
75488;SDS011;64069;46.396;48.102;2023-05-10T08:03:57;5.68;;;2.40;;
75488;SDS011;64069;46.396;48.102;2023-05-10T08:06:25;5.47;;;2.00;;
75488;SDS011;64069;46.396;48.102;2023-05-10T08:08:55;9.80;;;2.00;;
75488;SDS011;64069;46.396;48.102;2023-05-10T08:11:21;6.38;;;2.10;;
75488;SDS011;64069;46.396;48.102;2023-05-10T08:13:48;12.57;;;2.03;;
75488;SDS011;64069;46.396;48.102;2023-05-10T08:16:14;4.75;;;1.80;;
75488;SDS011;64069;46.396;48.102;2023-05-10T08:18:41;5.78;;;1.73;;
75488;SDS011;64069;46.396;48.102;2023-05-10T08:21:06;6.85;;;2.17;;
75488;SDS011;64069;46.396;48.102;2023-05-10T08:23:32;8.05;;;1.98;;
75488;SDS011;64069;46.396;48.102;2023-05-10T08:25:58;9.98;;;2.03;;
75488;SDS011;64069;46.396;48.102;2023-05-10T08:28:25;9.75;;;2.30;;
75488;SDS011;64069;46.396;48.102;2023-05-10T08:30:55;6.47;;;2.15;;
75488;SDS011;64069;46.396;48.102;2023-05-10T08:33:21;6.47;;;1.77;;
75488;SDS011;64069;46.396;48.102;2023-05-10T08:35:47;5.80;;;1.25;;
75488;SDS011;64069;46.396;48.102;2023-05-10T08:38:13;6.43;;;1.65;;
75488;SDS011;64069;46.396;48.102;2023-05-10T08:40:41;6.00;;;1.50;;
75488;SDS011;64069;46.396;48.102;2023-05-10T08:43:09;7.40;;;1.88;;
75488;SDS011;64069;46.396;48.102;2023-05-10T08:45:40;5.75;;;1.65;;
75488;SDS011;64069;46.396;48.102;2023-05-10T08:48:13;4.35;;;1.67;;
75488;SDS011;64069;46.396;48.102;2023-05-10T08:50:40;5.05;;;1.40;;
75488;SDS011;64069;46.396;48.102;2023-05-10T08:53:11;7.03;;;1.65;;
75488;SDS011;64069;46.396;48.102;2023-05-10T08:55:38;5.88;;;1.38;;
75488;SDS011;64069;46.396;48.102;2023-05-10T08:58:07;6.15;;;1.40;;
75488;SDS011;64069;46.396;48.102;2023-05-10T09:00:34;19.75;;;2.45;;
75488;SDS011;64069;46.396;48.102;2023-05-10T09:03:02;4.20;;;1.30;;
75488;SDS011;64069;46.396;48.102;2023-05-10T09:05:30;3.58;;;1.30;;
75488;SDS011;64069;46.396;48.102;2023-05-10T09:07:56;7.03;;;1.50;;
75488;SDS011;64069;46.396;48.102;2023-05-10T09:10:26;3.67;;;1.40;;
75488;SDS011;64069;46.396;48.102;2023-05-10T09:12:53;3.50;;;1.48;;
75488;SDS011;64069;46.396;48.102;2023-05-10T09:15:22;7.72;;;1.52;;
75488;SDS011;64069;46.396;48.102;2023-05-10T09:17:49;4.30;;;1.40;;
75488;SDS011;64069;46.396;48.102;2023-05-10T09:20:15;4.63;;;1.40;;
75488;SDS011;64069;46.396;48.102;2023-05-10T09:22:42;9.02;;;1.70;;
75488;SDS011;64069;46.396;48.102;2023-05-10T09:25:14;2.25;;;1.35;;
75488;SDS011;64069;46.396;48.102;2023-05-10T09:27:41;8.48;;;2.38;;
75488;SDS011;64069;46.396;48.102;2023-05-10T09:30:15;2.47;;;1.40;;
75488;SDS011;64069;46.396;48.102;2023-05-10T09:32:45;5.03;;;1.52;;
75488;SDS011;64069;46.396;48.102;2023-05-10T09:35:19;9.02;;;1.77;;
75488;SDS011;64069;46.396;48.102;2023-05-10T09:37:48;7.60;;;1.80;;
75488;SDS011;64069;46.396;48.102;2023-05-10T09:40:25;4.88;;;1.67;;
75488;SDS011;64069;46.396;48.102;2023-05-10T09:42:56;6.35;;;1.55;;
75488;SDS011;64069;46.396;48.102;2023-05-10T09:45:27;3.67;;;1.67;;
75488;SDS011;64069;46.396;48.102;2023-05-10T09:47:57;3.25;;;1.38;;
75488;SDS011;64069;46.396;48.102;2023-05-10T09:50:24;4.80;;;1.50;;
75488;SDS011;64069;46.396;48.102;2023-05-10T09:52:54;2.95;;;1.10;;
75488;SDS011;64069;46.396;48.102;2023-05-10T09:55:46;4.75;;;1.70;;
75488;SDS011;64069;46.396;48.102;2023-05-10T09:58:12;5.40;;;1.50;;
75488;SDS011;64069;46.396;48.102;2023-05-10T10:00:41;6.50;;;1.50;;
75488;SDS011;64069;46.396;48.102;2023-05-10T10:03:12;7.30;;;1.70;;
75488;SDS011;64069;46.396;48.102;2023-05-10T10:05:40;6.25;;;1.48;;
75488;SDS011;64069;46.396;48.102;2023-05-10T10:08:17;4.07;;;1.33;;
75488;SDS011;64069;46.396;48.102;2023-05-10T10:10:43;2.83;;;1.10;;
75488;SDS011;64069;46.396;48.102;2023-05-10T10:13:18;6.30;;;1.50;;
75488;SDS011;64069;46.396;48.102;2023-05-10T10:15:44;5.60;;;1.33;;
75488;SDS011;64069;46.396;48.102;2023-05-10T10:18:14;5.25;;;1.60;;
75488;SDS011;64069;46.396;48.102;2023-05-10T10:20:43;7.20;;;1.40;;
75488;SDS011;64069;46.396;48.102;2023-05-10T10:23:17;5.25;;;1.40;;
75488;SDS011;64069;46.396;48.102;2023-05-10T10:25:44;12.57;;;1.45;;
75488;SDS011;64069;46.396;48.102;2023-05-10T10:28:24;9.00;;;1.55;;
75488;SDS011;64069;46.396;48.102;2023-05-10T10:31:00;7.32;;;1.33;;
75488;SDS011;64069;46.396;48.102;2023-05-10T10:36:46;7.18;;;1.38;;
75488;SDS011;64069;46.396;48.102;2023-05-10T10:39:12;3.55;;;1.33;;
75488;SDS011;64069;46.396;48.102;2023-05-10T10:41:40;8.40;;;1.48;;
75488;SDS011;64069;46.396;48.102;2023-05-10T10:52:31;6.90;;;1.15;;
75488;SDS011;64069;46.396;48.102;2023-05-10T10:55:17;10.30;;;1.60;;
75488;SDS011;64069;46.396;48.102;2023-05-10T11:03:11;2.28;;;0.98;;
75488;SDS011;64069;46.396;48.102;2023-05-10T11:05:44;3.40;;;1.10;;
75488;SDS011;64069;46.396;48.102;2023-05-10T11:08:27;5.68;;;1.88;;
75488;SDS011;64069;46.396;48.102;2023-05-10T11:13:28;8.18;;;1.60;;
75488;SDS011;64069;46.396;48.102;2023-05-10T11:15:56;3.72;;;1.40;;
75488;SDS011;64069;46.396;48.102;2023-05-10T11:18:28;9.27;;;1.83;;
75488;SDS011;64069;46.396;48.102;2023-05-10T11:20:59;4.63;;;1.25;;
75488;SDS011;64069;46.396;48.102;2023-05-10T11:23:52;4.30;;;1.10;;
75488;SDS011;64069;46.396;48.102;2023-05-10T11:26:24;3.72;;;1.30;;
75488;SDS011;64069;46.396;48.102;2023-05-10T11:28:53;2.75;;;1.17;;
75488;SDS011;64069;46.396;48.102;2023-05-10T11:31:23;5.03;;;1.15;;
75488;SDS011;64069;46.396;48.102;2023-05-10T11:33:52;4.18;;;1.08;;
75488;SDS011;64069;46.396;48.102;2023-05-10T11:38:51;4.28;;;1.10;;
75488;SDS011;64069;46.396;48.102;2023-05-10T11:41:18;2.80;;;1.08;;
75488;SDS011;64069;46.396;48.102;2023-05-10T11:43:49;5.00;;;1.17;;
75488;SDS011;64069;46.396;48.102;2023-05-10T11:46:16;9.45;;;1.20;;
75488;SDS011;64069;46.396;48.102;2023-05-10T11:48:45;12.35;;;3.63;;
75488;SDS011;64069;46.396;48.102;2023-05-10T11:51:14;2.03;;;0.90;;
75488;SDS011;64069;46.396;48.102;2023-05-10T11:53:40;1.58;;;0.82;;
75488;SDS011;64069;46.396;48.102;2023-05-10T11:56:11;6.85;;;1.08;;
75488;SDS011;64069;46.396;48.102;2023-05-10T11:58:38;3.10;;;1.05;;
75488;SDS011;64069;46.396;48.102;2023-05-10T12:01:05;15.60;;;1.77;;
75488;SDS011;64069;46.396;48.102;2023-05-10T12:03:32;1.98;;;0.90;;
75488;SDS011;64069;46.396;48.102;2023-05-10T12:05:59;10.73;;;1.30;;
75488;SDS011;64069;46.396;48.102;2023-05-10T12:08:30;3.63;;;1.13;;
75488;SDS011;64069;46.396;48.102;2023-05-10T12:11:09;8.65;;;1.13;;
75488;SDS011;64069;46.396;48.102;2023-05-10T12:13:43;4.65;;;1.20;;
75488;SDS011;64069;46.396;48.102;2023-05-10T12:16:19;2.90;;;1.02;;
75488;SDS011;64069;46.396;48.102;2023-05-10T12:18:50;7.63;;;1.20;;
75488;SDS011;64069;46.396;48.102;2023-05-10T12:21:18;1.42;;;0.68;;
75488;SDS011;64069;46.396;48.102;2023-05-10T12:23:45;2.65;;;1.02;;
75488;SDS011;64069;46.396;48.102;2023-05-10T12:26:16;1.98;;;0.77;;
75488;SDS011;64069;46.396;48.102;2023-05-10T12:28:42;2.20;;;0.80;;
75488;SDS011;64069;46.396;48.102;2023-05-10T12:31:12;4.75;;;1.55;;
75488;SDS011;64069;46.396;48.102;2023-05-10T12:33:42;14.75;;;1.55;;
75488;SDS011;64069;46.396;48.102;2023-05-10T12:36:09;18.05;;;4.95;;
75488;SDS011;64069;46.396;48.102;2023-05-10T12:38:37;6.35;;;1.33;;
75488;SDS011;64069;46.396;48.102;2023-05-10T12:41:08;1.33;;;0.75;;
75488;SDS011;64069;46.396;48.102;2023-05-10T12:43:43;4.18;;;0.85;;
75488;SDS011;64069;46.396;48.102;2023-05-10T12:46:13;5.95;;;1.40;;
75488;SDS011;64069;46.396;48.102;2023-05-10T12:48:40;5.97;;;1.95;;
75488;SDS011;64069;46.396;48.102;2023-05-10T12:51:07;18.40;;;3.50;;
75488;SDS011;64069;46.396;48.102;2023-05-10T12:53:38;4.22;;;1.10;;
75488;SDS011;64069;46.396;48.102;2023-05-10T12:56:05;18.15;;;2.08;;
75488;SDS011;64069;46.396;48.102;2023-05-10T12:58:31;5.93;;;1.50;;
75488;SDS011;64069;46.396;48.102;2023-05-10T13:00:58;5.45;;;1.70;;
75488;SDS011;64069;46.396;48.102;2023-05-10T13:03:25;2.15;;;1.13;;
75488;SDS011;64069;46.396;48.102;2023-05-10T13:05:54;2.25;;;1.10;;
75488;SDS011;64069;46.396;48.102;2023-05-10T13:08:20;3.38;;;1.50;;
75488;SDS011;64069;46.396;48.102;2023-05-10T13:10:45;3.13;;;1.77;;
75488;SDS011;64069;46.396;48.102;2023-05-10T13:13:11;4.70;;;2.00;;
75488;SDS011;64069;46.396;48.102;2023-05-10T13:15:37;3.03;;;1.73;;
75488;SDS011;64069;46.396;48.102;2023-05-10T13:18:03;4.05;;;1.70;;
75488;SDS011;64069;46.396;48.102;2023-05-10T13:20:29;3.28;;;1.50;;
75488;SDS011;64069;46.396;48.102;2023-05-10T13:23:00;5.13;;;1.85;;
75488;SDS011;64069;46.396;48.102;2023-05-10T13:25:26;6.13;;;1.70;;
75488;SDS011;64069;46.396;48.102;2023-05-10T13:27:52;3.60;;;1.63;;
75488;SDS011;64069;46.396;48.102;2023-05-10T13:30:18;5.82;;;1.95;;
75488;SDS011;64069;46.396;48.102;2023-05-10T13:33:02;4.22;;;1.90;;
75488;SDS011;64069;46.396;48.102;2023-05-10T13:35:28;4.97;;;1.50;;
75488;SDS011;64069;46.396;48.102;2023-05-10T13:37:54;7.78;;;1.95;;
75488;SDS011;64069;46.396;48.102;2023-05-10T13:40:42;5.97;;;1.83;;
75488;SDS011;64069;46.396;48.102;2023-05-10T13:43:27;3.40;;;1.83;;
75488;SDS011;64069;46.396;48.102;2023-05-10T13:46:12;7.28;;;1.60;;
75488;SDS011;64069;46.396;48.102;2023-05-10T13:51:27;11.90;;;2.35;;
75488;SDS011;64069;46.396;48.102;2023-05-10T13:53:56;4.57;;;1.40;;
75488;SDS011;64069;46.396;48.102;2023-05-10T13:56:21;3.95;;;1.50;;
75488;SDS011;64069;46.396;48.102;2023-05-10T13:58:47;5.75;;;1.60;;
75488;SDS011;64069;46.396;48.102;2023-05-10T14:01:14;4.25;;;1.67;;
75488;SDS011;64069;46.396;48.102;2023-05-10T14:03:59;4.35;;;1.60;;
75488;SDS011;64069;46.396;48.102;2023-05-10T14:06:43;6.72;;;1.85;;
75488;SDS011;64069;46.396;48.102;2023-05-10T14:09:09;10.18;;;1.85;;
75488;SDS011;64069;46.396;48.102;2023-05-10T14:12:12;5.32;;;2.42;;
75488;SDS011;64069;46.396;48.102;2023-05-10T14:14:42;4.07;;;1.70;;
75488;SDS011;64069;46.396;48.102;2023-05-10T14:17:27;7.35;;;1.88;;
75488;SDS011;64069;46.396;48.102;2023-05-10T14:20:11;12.25;;;2.08;;
75488;SDS011;64069;46.396;48.102;2023-05-10T14:22:37;6.40;;;2.47;;
75488;SDS011;64069;46.396;48.102;2023-05-10T14:25:22;4.43;;;2.15;;
75488;SDS011;64069;46.396;48.102;2023-05-10T14:28:07;8.30;;;2.80;;
75488;SDS011;64069;46.396;48.102;2023-05-10T14:30:51;7.03;;;2.92;;
75488;SDS011;64069;46.396;48.102;2023-05-10T14:33:35;6.95;;;2.00;;
75488;SDS011;64069;46.396;48.102;2023-05-10T14:36:02;8.60;;;1.75;;
75488;SDS011;64069;46.396;48.102;2023-05-10T14:41:13;3.42;;;1.35;;
75488;SDS011;64069;46.396;48.102;2023-05-10T14:43:40;5.60;;;1.70;;
75488;SDS011;64069;46.396;48.102;2023-05-10T14:46:07;8.10;;;2.22;;
75488;SDS011;64069;46.396;48.102;2023-05-10T14:48:33;4.65;;;1.35;;
75488;SDS011;64069;46.396;48.102;2023-05-10T14:51:00;16.13;;;1.90;;
75488;SDS011;64069;46.396;48.102;2023-05-10T14:53:44;6.35;;;1.00;;
75488;SDS011;64069;46.396;48.102;2023-05-10T14:56:10;4.45;;;0.98;;
75488;SDS011;64069;46.396;48.102;2023-05-10T14:58:36;5.95;;;1.10;;
75488;SDS011;64069;46.396;48.102;2023-05-10T15:01:39;6.30;;;1.27;;
75488;SDS011;64069;46.396;48.102;2023-05-10T15:04:07;6.03;;;0.77;;
75488;SDS011;64069;46.396;48.102;2023-05-10T15:06:51;5.95;;;0.98;;
75488;SDS011;64069;46.396;48.102;2023-05-10T15:09:39;5.30;;;1.00;;
75488;SDS011;64069;46.396;48.102;2023-05-10T15:12:24;5.78;;;1.20;;
75488;SDS011;64069;46.396;48.102;2023-05-10T15:14:50;6.28;;;1.05;;
75488;SDS011;64069;46.396;48.102;2023-05-10T15:17:16;8.55;;;1.35;;
75488;SDS011;64069;46.396;48.102;2023-05-10T15:19:42;7.95;;;1.10;;
75488;SDS011;64069;46.396;48.102;2023-05-10T15:22:26;7.22;;;1.08;;
75488;SDS011;64069;46.396;48.102;2023-05-10T15:28:14;7.90;;;1.45;;
75488;SDS011;64069;46.396;48.102;2023-05-10T15:30:40;9.05;;;2.22;;
75488;SDS011;64069;46.396;48.102;2023-05-10T15:36:13;8.32;;;1.83;;
75488;SDS011;64069;46.396;48.102;2023-05-10T15:38:58;8.77;;;1.27;;
75488;SDS011;64069;46.396;48.102;2023-05-10T15:41:24;11.73;;;1.40;;
75488;SDS011;64069;46.396;48.102;2023-05-10T15:43:50;11.05;;;2.38;;
75488;SDS011;64069;46.396;48.102;2023-05-10T15:46:19;19.08;;;2.30;;